< < Back
Terminal Aerodrome Forecast


Current Version              Previous Versions:   1  2  3  4  5  6  7  8  9  

Terminal Aerodrome Forecast

669
FTUS42 KTAE 011100
TAFDHN
TAF
KDHN 011120Z 0112/0212 00000KT P6SM OVC035
     FM011500 12005KT P6SM FEW040
     FM020700 VRB03KT 4SM BR SKC=



Latest METAR

240
SAUS70 KWBC 020400 RRD
MTRDHN
METAR KDHN 020353Z AUTO 00000KT 10SM CLR 21/19 A3005 RMK AO2 SLP170
T02060189


USA.gov is the U.S. government's official web portal to all federal, state and local government web resources and services.